Time;durP1;ratioP1;P1;durP2;ratioP2;P2;SDS_P1;SDS_P2;PMS_P1;PMS_P2;Temp;Humidity;BMP_temperature;BMP_pressure;BME280_temperature;BME280_humidity;BME280_pressure;Samples;Min_cycle;Max_cycle;Signal;HPM_P1;HPM_P2
2023/03/02 00:01:49;;;;;;;4.25;0.95;;;5.60;99.90;;;;;;5029398;28;20053;-64
2023/03/02 00:04:34;;;;;;;0.30;0.30;;;5.40;99.90;;;;;;5030172;28;20077;-63
2023/03/02 00:07:04;;;;;;;0.20;0.20;;;5.50;99.90;;;;;;5021425;28;20050;-64
2023/03/02 00:09:31;;;;;;;0.40;0.40;;;5.50;99.90;;;;;;5028486;28;20037;-63
2023/03/02 00:11:57;;;;;;;0.63;0.63;;;5.40;99.90;;;;;;5029354;28;20501;-63
2023/03/02 00:14:22;;;;;;;1.10;1.10;;;5.40;99.90;;;;;;5028994;28;20510;-63
2023/03/02 00:16:48;;;;;;;0.50;0.50;;;5.40;99.90;;;;;;5028949;28;20041;-64
2023/03/02 00:19:14;;;;;;;0.63;0.55;;;5.50;99.90;;;;;;5023841;28;20751;-63
2023/03/02 00:21:40;;;;;;;0.68;0.68;;;5.50;99.90;;;;;;5021935;28;20046;-64
2023/03/02 00:24:06;;;;;;;1.90;1.77;;;5.50;99.90;;;;;;5028386;28;20064;-64
2023/03/02 00:26:33;;;;;;;1.42;1.33;;;5.50;99.90;;;;;;5029159;28;20476;-63
2023/03/02 00:28:59;;;;;;;0.10;0.10;;;5.30;99.90;;;;;;5026461;28;20112;-63
2023/03/02 00:31:24;;;;;;;1.23;1.17;;;5.40;99.90;;;;;;5029522;28;20049;-63
2023/03/02 00:33:53;;;;;;;0.10;0.10;;;5.40;99.90;;;;;;5030299;28;20048;-64
2023/03/02 00:36:19;;;;;;;0.20;0.20;;;5.40;99.90;;;;;;5033762;28;20052;-63
2023/03/02 00:38:46;;;;;;;0.82;0.82;;;5.30;99.90;;;;;;5032065;28;20041;-64
2023/03/02 00:41:13;;;;;;;0.20;0.20;;;5.30;99.90;;;;;;5032940;28;20148;-63
2023/03/02 00:43:39;;;;;;;0.25;0.25;;;5.30;99.90;;;;;;5033199;28;20400;-63
2023/03/02 00:46:13;;;;;;;0.90;0.80;;;5.30;99.90;;;;;;5034040;28;20041;-64
2023/03/02 00:48:39;;;;;;;1.25;1.25;;;5.30;99.90;;;;;;5031973;28;20048;-63
2023/03/02 00:51:06;;;;;;;0.20;0.20;;;5.30;99.90;;;;;;5032478;28;20057;-63
2023/03/02 00:53:33;;;;;;;0.60;0.60;;;5.20;99.90;;;;;;5032723;28;20037;-63
2023/03/02 00:56:00;;;;;;;2.45;1.17;;;5.10;99.90;;;;;;5032803;28;20053;-63
2023/03/02 00:58:26;;;;;;;1.02;0.80;;;5.00;99.90;;;;;;5033101;28;20045;-63
2023/03/02 01:00:52;;;;;;;0.25;0.25;;;5.10;99.90;;;;;;5032418;28;20053;-64
2023/03/02 01:03:18;;;;;;;0.20;0.20;;;5.00;99.90;;;;;;5032101;28;20440;-63
2023/03/02 01:05:43;;;;;;;1.27;1.05;;;5.00;99.90;;;;;;5033137;28;20507;-63
2023/03/02 01:08:09;;;;;;;0.40;0.40;;;5.00;99.90;;;;;;5032073;28;20076;-63
2023/03/02 01:10:35;;;;;;;1.00;1.00;;;5.00;99.90;;;;;;5032424;28;20124;-64
2023/03/02 01:13:00;;;;;;;1.08;0.90;;;5.00;99.90;;;;;;5032452;28;20049;-64
2023/03/02 01:15:26;;;;;;;5.47;1.75;;;5.00;99.90;;;;;;5031495;28;20068;-64
2023/03/02 01:17:51;;;;;;;0.50;0.50;;;5.00;99.90;;;;;;5015476;28;20041;-64
2023/03/02 01:20:17;;;;;;;0.63;0.55;;;5.00;99.90;;;;;;5019262;28;20057;-64
2023/03/02 01:22:44;;;;;;;1.65;1.10;;;5.00;99.90;;;;;;5019526;28;20088;-63
2023/03/02 01:25:10;;;;;;;0.30;0.30;;;5.00;99.90;;;;;;5031908;28;20245;-63
2023/03/02 01:27:36;;;;;;;0.10;0.10;;;5.00;99.90;;;;;;5014399;28;20045;-64
2023/03/02 01:30:02;;;;;;;0.10;0.10;;;5.00;99.90;;;;;;5032046;28;20046;-64
2023/03/02 01:32:28;;;;;;;0.10;0.10;;;5.10;99.90;;;;;;5029884;28;20124;-63
2023/03/02 01:34:54;;;;;;;0.25;0.25;;;5.00;99.90;;;;;;5032155;28;20137;-63
2023/03/02 01:37:21;;;;;;;0.20;0.20;;;4.90;99.90;;;;;;5028328;28;20197;-63
2023/03/02 01:39:48;;;;;;;0.20;0.20;;;4.90;99.90;;;;;;5027947;28;20055;-63
2023/03/02 01:42:13;;;;;;;0.35;0.35;;;4.90;99.90;;;;;;5031543;28;20128;-63
2023/03/02 01:44:45;;;;;;;0.30;0.30;;;4.90;99.90;;;;;;5030813;28;20125;-64
2023/03/02 01:47:36;;;;;;;0.30;0.30;;;4.90;99.90;;;;;;5031036;28;20053;-63
2023/03/02 01:50:14;;;;;;;0.10;0.10;;;4.90;99.90;;;;;;5030981;28;20038;-63
2023/03/02 01:52:40;;;;;;;0.60;0.60;;;4.80;99.90;;;;;;5031714;28;20053;-63
2023/03/02 01:55:10;;;;;;;0.13;0.13;;;4.90;99.90;;;;;;5032138;28;20742;-63
2023/03/02 01:57:42;;;;;;;0.30;0.30;;;4.90;99.90;;;;;;5030615;28;20056;-63
2023/03/02 02:00:20;;;;;;;0.10;0.10;;;4.90;99.90;;;;;;5032271;28;20377;-63
2023/03/02 02:02:46;;;;;;;0.28;0.28;;;4.80;99.90;;;;;;5013089;28;20060;-63
2023/03/02 02:05:18;;;;;;;0.10;0.10;;;4.80;99.90;;;;;;5030840;28;20053;-63
2023/03/02 02:07:44;;;;;;;0.10;0.10;;;4.90;99.90;;;;;;5032172;28;20055;-63
2023/03/02 02:10:11;;;;;;;0.10;0.10;;;4.80;99.90;;;;;;5011777;28;20136;-64
2023/03/02 02:12:36;;;;;;;0.30;0.30;;;4.90;99.90;;;;;;5029294;28;20041;-63
2023/03/02 02:15:03;;;;;;;0.10;0.10;;;4.90;99.90;;;;;;5030597;28;20037;-63
2023/03/02 02:17:29;;;;;;;0.70;0.30;;;4.80;99.90;;;;;;5013815;28;20092;-63
2023/03/02 02:20:15;;;;;;;0.10;0.10;;;4.90;99.90;;;;;;5029895;28;20046;-63
2023/03/02 02:22:52;;;;;;;0.63;0.55;;;4.80;99.90;;;;;;5031067;28;20136;-64
2023/03/02 02:25:43;;;;;;;0.40;0.40;;;4.70;99.90;;;;;;5010812;28;20116;-63
2023/03/02 02:28:18;;;;;;;0.25;0.25;;;4.80;99.90;;;;;;5031791;28;20107;-63
2023/03/02 02:30:46;;;;;;;0.15;0.15;;;4.80;99.90;;;;;;5030524;28;20099;-63
2023/03/02 02:33:18;;;;;;;0.47;0.47;;;4.70;99.90;;;;;;5028532;28;20077;-63
2023/03/02 02:35:46;;;;;;;0.70;0.43;;;4.70;99.90;;;;;;5031813;28;20049;-63
2023/03/02 02:38:14;;;;;;;0.10;0.10;;;4.70;99.90;;;;;;5012399;28;20111;-63
2023/03/02 02:40:56;;;;;;;0.10;0.10;;;4.60;99.90;;;;;;5027317;28;20504;-63
2023/03/02 02:43:22;;;;;;;0.45;0.45;;;4.60;99.90;;;;;;5030450;28;20532;-63
2023/03/02 02:45:52;;;;;;;0.10;0.10;;;4.60;99.90;;;;;;5030548;28;20128;-64
2023/03/02 02:48:21;;;;;;;0.50;0.50;;;4.50;99.90;;;;;;5029668;28;20087;-63
2023/03/02 02:50:48;;;;;;;0.10;0.10;;;4.40;99.90;;;;;;5031305;28;20444;-63
2023/03/02 02:53:20;;;;;;;0.20;0.20;;;4.40;99.90;;;;;;5026285;28;20034;-63
2023/03/02 02:55:49;;;;;;;9.43;1.45;;;4.40;99.90;;;;;;5012616;28;20477;-63
2023/03/02 02:58:26;;;;;;;1.08;1.00;;;4.30;99.90;;;;;;5030329;28;20119;-63
2023/03/02 03:00:53;;;;;;;0.82;0.82;;;4.30;99.90;;;;;;5029080;28;20485;-64
2023/03/02 03:03:29;;;;;;;0.70;0.70;;;4.20;99.90;;;;;;5031149;28;20485;-64
2023/03/02 03:06:01;;;;;;;0.10;0.10;;;4.30;99.90;;;;;;5029694;28;20392;-63
2023/03/02 03:08:42;;;;;;;0.10;0.10;;;4.20;99.90;;;;;;5029510;28;20049;-63
2023/03/02 03:11:23;;;;;;;0.10;0.10;;;4.20;99.90;;;;;;5029651;28;20081;-63
2023/03/02 03:13:56;;;;;;;0.22;0.22;;;4.30;99.90;;;;;;5029782;28;20045;-63
2023/03/02 03:16:22;;;;;;;0.35;0.28;;;4.30;99.90;;;;;;5020737;28;20041;-64
2023/03/02 03:18:50;;;;;;;0.10;0.10;;;4.30;99.90;;;;;;5029935;28;20049;-63
2023/03/02 03:21:17;;;;;;;0.10;0.10;;;4.30;99.90;;;;;;5001463;28;20049;-63
2023/03/02 03:23:43;;;;;;;0.20;0.20;;;4.40;99.90;;;;;;5028687;28;20056;-64
2023/03/02 03:26:09;;;;;;;0.22;0.22;;;4.30;99.90;;;;;;5030788;28;20037;-63
2023/03/02 03:28:35;;;;;;;0.10;0.10;;;4.40;99.90;;;;;;5029005;28;20050;-64
2023/03/02 03:31:00;;;;;;;1.40;1.30;;;4.40;99.90;;;;;;5027100;28;20519;-63
2023/03/02 03:33:27;;;;;;;1.13;1.02;;;4.30;99.90;;;;;;5028953;28;20052;-63
2023/03/02 03:35:52;;;;;;;0.32;0.32;;;4.40;99.90;;;;;;5029726;28;20033;-64
2023/03/02 03:38:18;;;;;;;0.70;0.70;;;4.40;99.90;;;;;;5030132;28;20411;-63
2023/03/02 03:40:44;;;;;;;0.65;0.65;;;4.40;99.90;;;;;;5029083;28;20080;-64
2023/03/02 03:43:12;;;;;;;0.63;0.63;;;4.40;99.90;;;;;;5028890;28;20199;-64
2023/03/02 03:45:38;;;;;;;0.85;0.85;;;4.40;99.90;;;;;;5029179;28;20524;-64
2023/03/02 03:48:04;;;;;;;0.43;0.43;;;4.30;99.90;;;;;;5029951;28;20172;-63
2023/03/02 03:50:29;;;;;;;0.55;0.55;;;4.30;99.90;;;;;;5029722;28;20146;-63
2023/03/02 03:52:55;;;;;;;4.57;1.65;;;4.40;99.90;;;;;;5011396;28;20041;-64
2023/03/02 03:55:21;;;;;;;0.13;0.13;;;4.30;99.90;;;;;;5029145;28;20436;-64
2023/03/02 03:57:46;;;;;;;1.48;1.38;;;4.30;99.90;;;;;;5029757;28;20042;-63
2023/03/02 04:00:15;;;;;;;0.13;0.13;;;4.30;99.90;;;;;;5030078;28;20060;-64
2023/03/02 04:02:41;;;;;;;0.15;0.15;;;4.30;99.90;;;;;;5028931;28;20060;-64
2023/03/02 04:05:07;;;;;;;0.95;0.88;;;4.30;99.90;;;;;;5028883;28;20037;-63
2023/03/02 04:07:34;;;;;;;0.32;0.32;;;4.30;99.90;;;;;;5011928;28;20057;-64
2023/03/02 04:10:03;;;;;;;0.10;0.10;;;4.30;99.90;;;;;;5029687;28;20045;-64
2023/03/02 04:12:37;;;;;;;0.30;0.30;;;4.20;99.90;;;;;;5027136;28;20432;-63
2023/03/02 04:15:04;;;;;;;0.45;0.45;;;4.10;99.90;;;;;;5029713;28;20033;-64
2023/03/02 04:17:30;;;;;;;1.05;0.95;;;4.10;99.90;;;;;;5028656;28;20539;-63
2023/03/02 04:19:56;;;;;;;0.10;0.10;;;4.10;99.90;;;;;;5025921;28;20061;-63
2023/03/02 04:22:22;;;;;;;0.10;0.10;;;4.10;99.90;;;;;;5029721;28;20460;-64
2023/03/02 04:24:48;;;;;;;0.73;0.73;;;4.20;99.90;;;;;;5027653;28;20060;-64
2023/03/02 04:27:15;;;;;;;0.30;0.30;;;4.20;99.90;;;;;;5028695;28;20076;-63
2023/03/02 04:29:41;;;;;;;0.20;0.20;;;4.10;99.90;;;;;;5028597;28;20100;-63
2023/03/02 04:32:07;;;;;;;0.15;0.15;;;4.10;99.90;;;;;;5029162;28;20069;-63
2023/03/02 04:34:33;;;;;;;0.85;0.85;;;4.00;99.90;;;;;;5029177;28;20041;-64
2023/03/02 04:36:59;;;;;;;0.20;0.20;;;4.10;99.90;;;;;;5029632;28;20069;-64
2023/03/02 04:39:25;;;;;;;2.00;1.55;;;4.10;99.90;;;;;;5009891;28;20091;-64
2023/03/02 04:41:51;;;;;;;0.57;0.57;;;4.00;99.90;;;;;;5028578;28;20049;-64
2023/03/02 04:44:18;;;;;;;1.05;0.98;;;4.10;99.90;;;;;;5028622;28;20558;-64
2023/03/02 04:46:44;;;;;;;0.57;0.57;;;4.10;99.90;;;;;;5028143;28;20094;-63
2023/03/02 04:49:10;;;;;;;0.77;0.77;;;4.10;99.90;;;;;;5027815;28;20053;-63
2023/03/02 04:51:39;;;;;;;0.30;0.30;;;4.10;99.90;;;;;;5011643;28;20053;-63
2023/03/02 04:54:23;;;;;;;0.40;0.40;;;4.10;99.90;;;;;;5028351;28;20050;-63
2023/03/02 04:56:50;;;;;;;;;;;4.10;99.90;;;;;;5028322;28;20512;-63
2023/03/02 04:59:16;;;;;;;0.80;0.80;;;4.00;99.90;;;;;;5028245;28;19921;-63
2023/03/02 05:01:43;;;;;;;0.77;0.77;;;4.10;99.90;;;;;;5026143;28;20037;-63
2023/03/02 05:04:09;;;;;;;1.08;1.08;;;4.10;99.90;;;;;;5011002;28;20386;-63
2023/03/02 05:06:34;;;;;;;0.40;0.40;;;4.10;99.90;;;;;;5029131;28;20053;-63
2023/03/02 05:09:00;;;;;;;4.07;0.88;;;4.10;99.90;;;;;;5027482;28;20045;-64
2023/03/02 05:11:26;;;;;;;0.95;0.95;;;4.20;99.90;;;;;;5029021;28;20120;-63
2023/03/02 05:13:54;;;;;;;0.10;0.10;;;4.20;99.90;;;;;;5029046;28;20045;-63
2023/03/02 05:16:21;;;;;;;0.28;0.28;;;4.20;99.90;;;;;;5028303;28;20049;-63
2023/03/02 05:18:47;;;;;;;1.13;0.88;;;4.20;99.90;;;;;;5025499;28;20374;-63
2023/03/02 05:21:13;;;;;;;0.35;0.35;;;4.20;99.90;;;;;;5032725;28;20037;-64
2023/03/02 05:23:40;;;;;;;3.40;1.15;;;4.20;99.90;;;;;;5032099;28;20050;-63
2023/03/02 05:26:06;;;;;;;0.57;0.57;;;4.20;99.90;;;;;;5012919;28;20045;-63
2023/03/02 05:28:32;;;;;;;0.20;0.20;;;4.20;99.90;;;;;;5031956;28;20057;-63
2023/03/02 05:30:58;;;;;;;0.20;0.20;;;4.20;99.90;;;;;;5031979;28;20035;-63
2023/03/02 05:33:24;;;;;;;0.30;0.30;;;4.20;99.90;;;;;;5032608;28;20153;-63
2023/03/02 05:35:49;;;;;;;0.30;0.30;;;4.20;99.90;;;;;;5031000;28;20113;-64
2023/03/02 05:38:15;;;;;;;9.60;2.40;;;4.20;99.90;;;;;;5032816;28;20053;-63
2023/03/02 05:40:41;;;;;;;1.30;1.15;;;4.20;99.90;;;;;;5032368;28;20132;-63
2023/03/02 05:43:09;;;;;;;1.85;1.30;;;4.20;99.90;;;;;;5030765;28;20795;-63
2023/03/02 05:45:37;;;;;;;0.40;0.40;;;4.20;99.90;;;;;;5031544;28;20462;-63
2023/03/02 05:48:03;;;;;;;1.30;1.30;;;4.20;99.90;;;;;;5031137;28;20059;-64
2023/03/02 05:50:29;;;;;;;1.95;1.60;;;4.20;99.90;;;;;;5031392;28;20504;-63
2023/03/02 05:52:55;;;;;;;0.35;0.35;;;4.20;99.90;;;;;;5032046;28;20460;-63
2023/03/02 05:55:21;;;;;;;0.47;0.47;;;4.30;99.90;;;;;;5031122;28;20516;-63
2023/03/02 05:57:50;;;;;;;2.72;1.85;;;4.30;99.90;;;;;;5031735;28;20045;-63
2023/03/02 06:00:17;;;;;;;0.65;0.65;;;4.20;99.90;;;;;;5032263;28;20120;-63
2023/03/02 06:02:43;;;;;;;0.20;0.20;;;4.30;99.90;;;;;;5029205;28;20512;-63
2023/03/02 06:05:12;;;;;;;2.35;1.75;;;4.30;99.90;;;;;;5029967;28;20079;-63
2023/03/02 06:07:38;;;;;;;0.70;0.70;;;4.30;99.90;;;;;;5031397;28;20041;-63
2023/03/02 06:10:05;;;;;;;18.35;2.30;;;4.30;99.90;;;;;;5032250;28;20095;-63
2023/03/02 06:12:31;;;;;;;1.92;1.83;;;4.30;99.90;;;;;;5030419;28;20054;-63
2023/03/02 06:14:58;;;;;;;1.42;1.33;;;4.30;99.90;;;;;;5030775;28;20045;-63
2023/03/02 06:17:24;;;;;;;3.47;2.92;;;4.30;99.90;;;;;;5031261;28;20091;-63
2023/03/02 06:19:49;;;;;;;1.98;1.88;;;4.30;99.90;;;;;;5030903;28;20041;-63
2023/03/02 06:22:15;;;;;;;2.60;1.98;;;4.30;99.90;;;;;;5029808;28;20103;-63
2023/03/02 06:24:40;;;;;;;0.65;0.65;;;4.30;99.90;;;;;;5012735;28;20477;-63
2023/03/02 06:27:06;;;;;;;3.05;2.85;;;4.30;99.90;;;;;;5031510;28;20049;-63
2023/03/02 06:29:32;;;;;;;3.00;2.60;;;4.30;99.90;;;;;;5031466;28;20052;-63
2023/03/02 06:31:57;;;;;;;1.60;1.50;;;4.30;99.90;;;;;;5028269;28;20733;-63
2023/03/02 06:34:23;;;;;;;1.75;1.65;;;4.30;99.90;;;;;;5012760;28;20760;-64
2023/03/02 06:36:48;;;;;;;3.55;2.25;;;4.20;99.90;;;;;;5031094;28;20033;-64
2023/03/02 06:39:17;;;;;;;2.05;1.95;;;4.20;99.90;;;;;;5029543;28;20382;-63
2023/03/02 06:41:44;;;;;;;1.33;1.27;;;4.30;99.90;;;;;;5013435;28;20058;-63
2023/03/02 06:44:10;;;;;;;2.17;1.58;;;4.20;99.90;;;;;;5030334;28;20049;-63
2023/03/02 06:46:36;;;;;;;3.60;2.00;;;4.20;99.90;;;;;;5029917;28;20543;-63
2023/03/02 06:49:02;;;;;;;2.92;2.22;;;4.30;99.90;;;;;;5031249;28;20041;-63
2023/03/02 06:51:28;;;;;;;1.17;1.17;;;4.30;99.90;;;;;;5030907;28;20037;-63
2023/03/02 06:53:53;;;;;;;4.35;2.45;;;4.30;99.90;;;;;;5028816;28;20533;-63
2023/03/02 06:56:19;;;;;;;0.57;0.57;;;4.40;99.90;;;;;;5031179;28;20076;-63
2023/03/02 06:58:44;;;;;;;1.05;1.05;;;4.40;99.90;;;;;;5030127;28;20047;-63
2023/03/02 07:01:10;;;;;;;1.50;1.42;;;4.40;99.90;;;;;;5029240;28;20046;-63
2023/03/02 07:03:36;;;;;;;0.65;0.65;;;4.40;99.90;;;;;;5030745;28;20432;-63
2023/03/02 07:06:02;;;;;;;0.52;0.52;;;4.50;99.90;;;;;;5022149;28;20096;-63
2023/03/02 07:08:28;;;;;;;1.00;1.00;;;4.40;99.90;;;;;;5026446;28;20045;-63
2023/03/02 07:10:53;;;;;;;0.10;0.10;;;4.40;99.90;;;;;;5030571;28;20055;-63
2023/03/02 07:13:19;;;;;;;2.53;2.33;;;4.40;99.90;;;;;;5030303;28;20068;-63
2023/03/02 07:15:44;;;;;;;0.10;0.10;;;4.40;99.90;;;;;;5028758;28;20048;-63
2023/03/02 07:18:10;;;;;;;1.20;1.10;;;4.40;99.90;;;;;;5028937;28;20053;-63
2023/03/02 07:20:37;;;;;;;0.20;0.20;;;4.40;99.90;;;;;;5029786;28;20405;-63
2023/03/02 07:23:03;;;;;;;2.60;1.48;;;4.30;99.90;;;;;;5024994;28;20041;-63
2023/03/02 07:25:28;;;;;;;1.77;1.67;;;4.40;99.90;;;;;;5030162;28;20137;-63
2023/03/02 07:27:54;;;;;;;0.60;0.60;;;4.40;99.90;;;;;;5030740;28;20544;-63
2023/03/02 07:30:20;;;;;;;1.42;1.38;;;4.50;99.90;;;;;;5028911;28;20071;-63
2023/03/02 07:32:47;;;;;;;1.05;1.05;;;4.50;99.90;;;;;;5011695;28;20056;-63
2023/03/02 07:35:13;;;;;;;2.13;1.95;;;4.50;99.90;;;;;;5028924;28;20037;-63
2023/03/02 07:37:39;;;;;;;1.92;1.80;;;4.50;99.90;;;;;;5008293;28;20076;-63
2023/03/02 07:40:06;;;;;;;6.72;1.92;;;4.50;99.90;;;;;;5028524;28;20111;-63
2023/03/02 07:42:32;;;;;;;7.88;2.92;;;4.50;99.90;;;;;;5029066;28;20053;-63
2023/03/02 07:44:58;;;;;;;2.72;1.65;;;4.60;99.90;;;;;;5008567;28;20535;-64
2023/03/02 07:47:24;;;;;;;1.23;1.13;;;4.60;99.90;;;;;;5010798;28;20072;-63
2023/03/02 07:49:49;;;;;;;0.43;0.43;;;4.60;99.90;;;;;;5028035;28;20045;-63
2023/03/02 07:52:15;;;;;;;2.53;0.73;;;4.50;99.90;;;;;;5027477;28;20041;-63
2023/03/02 07:54:41;;;;;;;0.65;0.65;;;4.50;99.90;;;;;;5030316;28;20045;-63
2023/03/02 07:57:06;;;;;;;2.97;2.13;;;4.50;99.90;;;;;;5025968;28;20033;-63
2023/03/02 07:59:32;;;;;;;1.00;0.98;;;4.60;99.90;;;;;;5024838;28;20041;-63
2023/03/02 08:01:57;;;;;;;1.45;1.45;;;4.60;99.90;;;;;;5027963;28;20038;-63
2023/03/02 08:04:24;;;;;;;1.60;1.50;;;4.60;99.90;;;;;;5027456;28;20128;-63
2023/03/02 08:06:49;;;;;;;1.67;0.88;;;4.70;99.90;;;;;;5029920;28;20489;-64
2023/03/02 08:09:16;;;;;;;0.73;0.73;;;4.60;99.90;;;;;;5029136;28;20152;-64
2023/03/02 08:11:41;;;;;;;1.35;1.35;;;4.60;99.90;;;;;;5028790;28;20041;-63
2023/03/02 08:14:07;;;;;;;0.25;0.25;;;4.60;99.90;;;;;;5028479;28;20045;-63
2023/03/02 08:16:33;;;;;;;10.63;1.73;;;4.60;99.90;;;;;;5029791;28;20046;-63
2023/03/02 08:18:58;;;;;;;2.63;1.50;;;4.60;99.90;;;;;;5026136;28;20072;-63
2023/03/02 08:21:25;;;;;;;2.17;2.08;;;4.60;99.90;;;;;;5018469;28;20042;-64
2023/03/02 08:23:51;;;;;;;1.58;1.27;;;4.70;99.90;;;;;;5029278;28;20493;-63
2023/03/02 08:26:18;;;;;;;0.20;0.20;;;4.70;99.90;;;;;;5029662;28;20087;-63
2023/03/02 08:28:44;;;;;;;0.40;0.40;;;4.80;99.90;;;;;;5028565;28;20053;-63
2023/03/02 08:31:11;;;;;;;1.40;1.30;;;4.80;99.90;;;;;;5011219;28;20056;-63
2023/03/02 08:33:37;;;;;;;1.95;1.83;;;4.80;99.90;;;;;;5027753;28;20052;-63
2023/03/02 08:36:08;;;;;;;0.17;0.17;;;5.00;99.90;;;;;;5029863;28;20707;-63
2023/03/02 08:38:34;;;;;;;1.90;1.45;;;5.00;99.90;;;;;;5028857;28;20041;-63
2023/03/02 08:41:09;;;;;;;0.50;0.50;;;5.10;99.90;;;;;;5026764;28;20255;-64
2023/03/02 08:43:35;;;;;;;1.50;1.42;;;5.10;99.90;;;;;;5029339;28;20048;-63
2023/03/02 08:46:01;;;;;;;0.77;0.75;;;5.10;99.90;;;;;;5028893;28;20416;-63
2023/03/02 08:48:27;;;;;;;0.68;0.68;;;5.10;99.90;;;;;;5028546;28;20049;-63
2023/03/02 08:51:00;;;;;;;0.30;0.30;;;5.10;99.90;;;;;;5029597;28;20037;-63
2023/03/02 08:53:27;;;;;;;4.75;1.20;;;5.10;99.90;;;;;;5028640;28;20045;-63
2023/03/02 08:55:54;;;;;;;0.80;0.80;;;5.20;99.90;;;;;;5031513;28;20084;-63
2023/03/02 08:58:20;;;;;;;4.18;1.55;;;5.10;99.90;;;;;;5032838;28;20068;-63
2023/03/02 09:00:46;;;;;;;1.38;1.35;;;5.20;99.90;;;;;;5030862;28;20052;-63
2023/03/02 09:03:11;;;;;;;1.70;1.42;;;5.10;99.90;;;;;;5033080;28;20045;-63
2023/03/02 09:05:37;;;;;;;0.65;0.65;;;5.00;99.90;;;;;;5030157;28;20049;-63
2023/03/02 09:08:03;;;;;;;2.25;2.15;;;5.00;99.90;;;;;;5031026;28;20132;-63
2023/03/02 09:10:28;;;;;;;3.08;1.52;;;5.00;99.90;;;;;;5033326;28;20080;-63
2023/03/02 09:12:54;;;;;;;9.70;1.23;;;5.00;99.90;;;;;;5032946;28;20065;-63
2023/03/02 09:15:19;;;;;;;0.93;0.93;;;5.00;99.90;;;;;;5029638;28;20071;-63
2023/03/02 09:17:45;;;;;;;4.00;2.72;;;4.90;99.90;;;;;;5032744;28;20038;-63
2023/03/02 09:20:11;;;;;;;2.70;2.42;;;4.90;99.90;;;;;;5028496;28;20057;-64
2023/03/02 09:22:36;;;;;;;4.93;4.00;;;4.80;99.90;;;;;;5031836;28;20034;-63
2023/03/02 09:25:03;;;;;;;1.75;1.58;;;5.00;99.90;;;;;;5031842;28;20045;-63
2023/03/02 09:27:29;;;;;;;2.65;2.00;;;5.00;99.90;;;;;;5032377;28;20049;-63
2023/03/02 09:29:55;;;;;;;2.40;1.55;;;5.10;99.90;;;;;;5024407;28;20026;-64
2023/03/02 09:32:20;;;;;;;0.30;0.30;;;5.10;99.90;;;;;;5032551;28;20484;-64
2023/03/02 09:34:46;;;;;;;1.20;1.15;;;5.10;99.90;;;;;;5031114;28;20052;-63
2023/03/02 09:37:12;;;;;;;0.63;0.63;;;5.20;99.90;;;;;;5032208;28;20102;-63
2023/03/02 09:39:38;;;;;;;0.73;0.73;;;5.20;99.90;;;;;;5029937;28;20546;-63
2023/03/02 09:42:34;;;;;;;0.75;0.75;;;5.40;99.90;;;;;;5031159;28;20164;-63
2023/03/02 09:45:31;;;;;;;1.30;1.20;;;5.60;99.90;;;;;;5031716;28;20037;-63
2023/03/02 09:47:56;;;;;;;2.25;2.10;;;5.60;99.90;;;;;;5030970;28;20068;-63
2023/03/02 09:50:35;;;;;;;0.98;0.95;;;5.70;99.90;;;;;;5029872;28;20080;-64
2023/03/02 09:53:18;;;;;;;2.00;1.90;;;5.60;99.90;;;;;;5032376;28;20124;-63
2023/03/02 09:55:45;;;;;;;0.88;0.88;;;5.60;99.90;;;;;;5031442;28;20042;-63
2023/03/02 09:58:16;;;;;;;0.85;0.85;;;5.80;99.90;;;;;;5013828;28;20124;-63
2023/03/02 10:00:43;;;;;;;3.70;3.40;;;5.90;99.90;;;;;;5027791;28;20473;-63
2023/03/02 10:03:21;;;;;;;1.75;1.65;;;6.40;99.90;;;;;;5030645;28;20045;-64
2023/03/02 10:05:52;;;;;;;0.95;0.95;;;6.90;99.90;;;;;;5006012;28;20053;-63
2023/03/02 10:08:32;;;;;;;1.05;1.00;;;7.60;99.90;;;;;;5030539;28;20128;-63
2023/03/02 10:11:07;;;;;;;0.32;0.32;;;7.80;99.90;;;;;;5031420;28;20099;-64
2023/03/02 10:13:47;;;;;;;1.60;1.58;;;8.20;99.90;;;;;;5012427;28;20543;-64
2023/03/02 10:16:26;;;;;;;0.93;0.93;;;8.50;99.90;;;;;;5030385;28;20060;-64
2023/03/02 10:19:23;;;;;;;1.85;1.75;;;8.60;99.90;;;;;;5029115;28;20490;-64
2023/03/02 10:22:14;;;;;;;1.60;1.50;;;8.60;99.90;;;;;;5024413;28;20092;-65
2023/03/02 10:25:04;;;;;;;1.80;1.70;;;8.90;99.90;;;;;;5021155;28;20405;-64
2023/03/02 10:27:39;;;;;;;1.40;1.30;;;9.00;99.90;;;;;;5030243;28;20050;-65
2023/03/02 10:30:13;;;;;;;0.93;0.75;;;9.00;99.90;;;;;;5027651;28;20124;-65
2023/03/02 10:32:44;;;;;;;10.63;2.10;;;9.20;99.90;;;;;;5031088;28;20050;-64
2023/03/02 10:35:15;;;;;;;2.20;2.10;;;9.30;99.90;;;;;;5030708;28;20049;-64
2023/03/02 10:37:41;;;;;;;2.15;2.00;;;9.10;99.90;;;;;;5031451;28;20053;-64
2023/03/02 10:40:19;;;;;;;0.88;0.88;;;9.20;99.90;;;;;;5029444;28;20053;-64
2023/03/02 10:42:45;;;;;;;10.52;4.47;;;9.30;99.90;;;;;;5029692;28;20053;-64
2023/03/02 10:45:31;;;;;;;1.75;1.55;;;9.30;99.90;;;;;;5012498;28;20049;-64
2023/03/02 10:48:09;;;;;;;3.40;0.73;;;9.10;99.90;;;;;;5012636;28;20117;-64
2023/03/02 10:50:35;;;;;;;0.98;0.80;;;9.20;99.90;;;;;;5028493;28;20045;-64
2023/03/02 10:53:02;;;;;;;2.03;1.15;;;9.30;99.90;;;;;;5030578;28;20077;-64
2023/03/02 10:55:28;;;;;;;0.38;0.38;;;9.30;99.90;;;;;;5031108;28;20519;-64
2023/03/02 10:58:04;;;;;;;0.40;0.40;;;9.50;99.90;;;;;;5028115;28;20485;-63
2023/03/02 11:00:31;;;;;;;0.55;0.55;;;9.40;99.90;;;;;;5024861;28;20088;-63
2023/03/02 11:02:59;;;;;;;1.48;1.00;;;9.60;99.90;;;;;;5029121;28;20117;-63
2023/03/02 11:05:32;;;;;;;3.20;3.00;;;9.70;99.90;;;;;;5011253;28;20098;-63
2023/03/02 11:08:03;;;;;;;0.90;0.85;;;9.80;99.90;;;;;;5009462;28;20511;-63
2023/03/02 11:10:50;;;;;;;5.75;2.03;;;9.90;99.90;;;;;;5027088;28;20069;-64
2023/03/02 11:13:28;;;;;;;1.67;1.58;;;10.00;99.90;;;;;;5020974;28;20129;-64
2023/03/02 11:15:59;;;;;;;2.05;1.95;;;10.10;99.90;;;;;;5029483;28;20029;-64
2023/03/02 11:18:30;;;;;;;4.82;3.90;;;10.10;99.90;;;;;;5030597;28;20046;-64
2023/03/02 11:21:25;;;;;;;2.10;1.50;;;10.20;99.90;;;;;;5015790;28;20056;-63
2023/03/02 11:24:09;;;;;;;0.40;0.40;;;10.30;99.90;;;;;;4994199;28;20101;-64
2023/03/02 11:26:59;;;;;;;0.45;0.45;;;10.40;99.90;;;;;;5028691;28;20044;-63
2023/03/02 11:29:36;;;;;;;2.17;2.08;;;10.60;99.90;;;;;;5022707;28;20042;-63
2023/03/02 11:32:12;;;;;;;1.75;1.33;;;10.70;99.90;;;;;;5029816;28;20060;-63
2023/03/02 11:34:59;;;;;;;0.52;0.52;;;10.80;99.90;;;;;;5027739;28;20091;-63
2023/03/02 11:37:50;;;;;;;0.82;0.82;;;11.10;99.90;;;;;;5025084;28;20045;-63
2023/03/02 11:40:28;;;;;;;1.17;0.57;;;11.20;99.90;;;;;;5030128;28;20362;-63
2023/03/02 11:42:57;;;;;;;2.05;1.95;;;11.40;99.90;;;;;;5022947;28;20053;-63
2023/03/02 11:45:29;;;;;;;2.42;2.33;;;11.60;99.90;;;;;;5029377;28;20448;-64
2023/03/02 11:48:07;;;;;;;1.75;1.63;;;11.70;99.90;;;;;;5030170;28;20041;-63
2023/03/02 11:50:38;;;;;;;1.10;1.02;;;12.00;99.90;;;;;;5018240;28;20045;-64
2023/03/02 11:53:10;;;;;;;1.25;1.20;;;11.90;99.90;;;;;;5029799;28;20045;-64
2023/03/02 11:55:44;;;;;;;0.65;0.65;;;12.30;99.90;;;;;;5014063;28;20124;-64
2023/03/02 11:58:16;;;;;;;0.25;0.25;;;12.50;99.90;;;;;;5028033;28;20121;-64
2023/03/02 12:00:42;;;;;;;1.70;1.65;;;12.60;99.90;;;;;;5010422;28;20061;-63
2023/03/02 12:03:13;;;;;;;2.55;1.23;;;12.80;99.90;;;;;;5025532;28;20046;-63
2023/03/02 12:05:49;;;;;;;1.45;1.40;;;12.90;99.90;;;;;;5022071;28;20052;-64
2023/03/02 12:08:18;;;;;;;1.63;1.52;;;13.00;99.90;;;;;;5027438;28;20128;-63
2023/03/02 12:11:00;;;;;;;4.60;3.22;;;13.00;99.90;;;;;;5023205;28;20041;-63
2023/03/02 12:13:38;;;;;;;1.48;1.42;;;12.80;99.90;;;;;;5027839;28;20041;-63
2023/03/02 12:16:21;;;;;;;5.75;3.45;;;12.90;99.90;;;;;;5026873;28;20057;-63
2023/03/02 12:18:49;;;;;;;8.60;3.58;;;12.90;99.90;;;;;;5028885;28;20535;-63
2023/03/02 12:21:20;;;;;;;5.00;2.25;;;13.10;99.90;;;;;;5004579;28;20128;-62
2023/03/02 12:23:46;;;;;;;2.17;1.98;;;13.10;99.90;;;;;;5031302;28;20046;-63
2023/03/02 12:26:20;;;;;;;1.25;1.25;;;13.10;99.90;;;;;;5021002;28;20104;-63
2023/03/02 12:29:10;;;;;;;2.30;1.90;;;12.90;99.90;;;;;;5027979;28;20124;-63
2023/03/02 12:31:42;;;;;;;3.67;3.10;;;12.90;99.90;;;;;;5029271;28;20397;-63
2023/03/02 12:34:24;;;;;;;0.47;0.47;;;12.80;99.90;;;;;;5033064;28;20471;-63
2023/03/02 12:36:53;;;;;;;1.25;1.23;;;13.00;99.90;;;;;;5013687;28;20057;-63
2023/03/02 12:39:36;;;;;;;1.63;1.52;;;13.20;99.90;;;;;;5032658;28;20065;-63
2023/03/02 12:42:17;;;;;;;0.82;0.82;;;13.00;99.90;;;;;;5031900;28;20459;-63
2023/03/02 12:45:16;;;;;;;1.42;1.33;;;13.20;99.90;;;;;;5032666;28;20041;-63
2023/03/02 12:47:46;;;;;;;1.33;1.30;;;13.30;99.90;;;;;;5031831;28;20052;-63
2023/03/02 12:50:26;;;;;;;0.95;0.95;;;13.40;99.90;;;;;;5033811;28;20052;-63
2023/03/02 12:53:00;;;;;;;3.95;2.92;;;13.30;99.90;;;;;;5032560;28;20481;-64
2023/03/02 12:55:26;;;;;;;0.75;0.75;;;13.30;99.90;;;;;;5031697;28;20052;-63
2023/03/02 12:57:55;;;;;;;1.10;1.05;;;12.80;99.90;;;;;;5027451;28;20042;-62
2023/03/02 13:00:25;;;;;;;0.82;0.82;;;12.90;99.90;;;;;;5028938;28;20052;-62
2023/03/02 13:02:53;;;;;;;0.57;0.57;;;13.00;99.90;;;;;;5028220;28;20060;-62
2023/03/02 13:05:26;;;;;;;1.17;0.77;;;13.00;99.90;;;;;;5031560;28;20053;-63
2023/03/02 13:08:22;;;;;;;1.55;1.30;;;13.00;99.90;;;;;;5031173;28;20041;-62